Time;durP1;ratioP1;P1;durP2;ratioP2;P2;SDS_P1;SDS_P2;PMS_P1;PMS_P2;Temp;Humidity;BMP_temperature;BMP_pressure;BME280_temperature;BME280_humidity;BME280_pressure;Samples;Min_cycle;Max_cycle;Signal;HPM_P1;HPM_P2
2022/02/02 00:00:51;;;;;;;19.05;10.38;;;;;;;;;;5117513;28;20048;-75
2022/02/02 00:03:57;;;;;;;18.23;10.20;;;;;;;;;;5118238;28;20058;-75
2022/02/02 00:07:27;;;;;;;18.38;8.85;;;;;;;;;;5118393;28;20047;-75
2022/02/02 00:16:58;;;;;;;20.20;10.77;;;;;;;;;;5118104;28;20039;-75
2022/02/02 00:20:22;;;;;;;19.20;11.15;;;;;;;;;;5117784;28;20231;-75
2022/02/02 00:23:33;;;;;;;19.90;11.30;;;;;;;;;;5118095;28;20066;-75
2022/02/02 00:26:42;;;;;;;20.67;10.52;;;;;;;;;;5116943;28;20134;-75
2022/02/02 00:29:52;;;;;;;18.23;10.30;;;;;;;;;;5117301;28;20043;-75
2022/02/02 00:33:15;;;;;;;22.00;10.32;;;;;;;;;;5118003;28;20067;-75
2022/02/02 00:36:23;;;;;;;17.73;9.02;;;;;;;;;;5117041;28;20047;-75
2022/02/02 00:39:28;;;;;;;20.10;9.25;;;;;;;;;;5118096;28;20043;-75
2022/02/02 00:42:33;;;;;;;23.23;10.35;;;;;;;;;;5117185;28;20039;-75
2022/02/02 00:45:43;;;;;;;20.90;10.18;;;;;;;;;;5118071;28;20046;-75
2022/02/02 00:48:51;;;;;;;21.00;10.40;;;;;;;;;;5116630;28;20054;-75
2022/02/02 00:51:58;;;;;;;20.92;10.30;;;;;;;;;;5117691;28;20536;-75
2022/02/02 00:55:03;;;;;;;23.52;9.75;;;;;;;;;;5117634;28;20042;-74
2022/02/02 00:58:08;;;;;;;18.30;9.75;;;;;;;;;;5117824;28;20039;-74
2022/02/02 01:01:12;;;;;;;16.13;8.57;;;;;;;;;;5117879;28;20043;-74
2022/02/02 01:04:16;;;;;;;22.15;9.90;;;;;;;;;;5117903;28;20036;-74
2022/02/02 01:11:12;;;;;;;20.13;9.05;;;;;;;;;;5109537;28;20054;-74
2022/02/02 01:15:39;;;;;;;24.02;9.15;;;;;;;;;;5114443;28;20036;-74
2022/02/02 01:21:30;;;;;;;14.50;8.15;;;;;;;;;;5113659;28;20040;-74
2022/02/02 01:27:50;;;;;;;14.75;7.93;;;;;;;;;;5114185;28;20055;-74
2022/02/02 01:30:55;;;;;;;13.73;8.18;;;;;;;;;;5113964;28;20062;-75
2022/02/02 01:33:59;;;;;;;13.63;8.60;;;;;;;;;;5114148;28;20042;-75
2022/02/02 01:37:04;;;;;;;14.85;7.72;;;;;;;;;;5113743;28;20035;-75
2022/02/02 01:40:17;;;;;;;13.23;7.35;;;;;;;;;;5114145;28;20032;-74
2022/02/02 01:43:28;;;;;;;12.75;7.95;;;;;;;;;;5113694;28;20036;-74
2022/02/02 01:46:35;;;;;;;11.93;7.90;;;;;;;;;;5113675;28;20043;-74
2022/02/02 01:53:50;;;;;;;15.20;8.00;;;;;;;;;;5113783;28;20043;-75
2022/02/02 01:56:30;;;;;;;14.70;7.50;;;;;;;;;;5116008;28;20050;-74
2022/02/02 01:59:41;;;;;;;12.65;7.35;;;;;;;;;;5113291;28;20036;-74
2022/02/02 02:02:46;;;;;;;15.90;7.77;;;;;;;;;;5112820;28;20039;-74
2022/02/02 02:05:50;;;;;;;13.68;7.05;;;;;;;;;;5113593;28;20258;-74
2022/02/02 02:08:55;;;;;;;15.05;7.30;;;;;;;;;;5113518;28;20046;-74
2022/02/02 02:12:00;;;;;;;13.65;7.97;;;;;;;;;;5113141;28;20403;-75
2022/02/02 02:15:07;;;;;;;13.27;7.43;;;;;;;;;;5112567;28;20044;-75
2022/02/02 02:18:11;;;;;;;13.23;7.00;;;;;;;;;;5112089;28;20395;-74
2022/02/02 02:21:17;;;;;;;14.13;6.38;;;;;;;;;;5112225;28;20074;-75
2022/02/02 02:24:22;;;;;;;11.80;7.15;;;;;;;;;;5113035;28;20039;-74
2022/02/02 02:27:26;;;;;;;12.55;6.72;;;;;;;;;;5112850;28;20036;-74
2022/02/02 02:30:46;;;;;;;11.27;6.57;;;;;;;;;;5112807;28;20046;-74
2022/02/02 02:34:23;;;;;;;14.13;6.57;;;;;;;;;;5112833;28;20056;-74
2022/02/02 02:57:54;;;;;;;12.77;5.93;;;;;;;;;;5112048;28;20399;-74
2022/02/02 03:32:17;;;;;;;14.20;7.40;;;;;;;;;;5111878;28;20039;-73
2022/02/02 04:03:53;;;;;;;15.55;7.18;;;;;;;;;;5111381;28;20054;-73
2022/02/02 04:10:05;;;;;;;13.75;7.00;;;;;;;;;;5111258;28;20039;-73
2022/02/02 04:52:19;;;;;;;11.75;6.07;;;;;;;;;;5114771;28;20058;-73
2022/02/02 04:55:39;;;;;;;10.48;6.53;;;;;;;;;;5114445;28;20376;-73
2022/02/02 05:43:05;;;;;;;19.58;10.95;;;;;;;;;;5113707;28;20031;-73
2022/02/02 05:49:21;;;;;;;22.25;9.40;;;;;;;;;;5113274;28;20392;-73
2022/02/02 05:52:26;;;;;;;23.50;9.93;;;;;;;;;;5112156;28;20052;-73
2022/02/02 05:55:44;;;;;;;18.23;8.70;;;;;;;;;;5089499;28;20618;-73
2022/02/02 05:59:06;;;;;;;23.42;9.25;;;;;;;;;;5112568;28;20035;-73
2022/02/02 06:02:23;;;;;;;21.83;10.13;;;;;;;;;;5113252;28;20043;-73
2022/02/02 06:05:29;;;;;;;17.45;8.73;;;;;;;;;;5113404;28;20039;-73
2022/02/02 06:08:34;;;;;;;17.75;8.38;;;;;;;;;;5113449;28;20035;-73
2022/02/02 06:11:41;;;;;;;17.63;9.05;;;;;;;;;;5113163;28;20062;-73
2022/02/02 06:14:46;;;;;;;22.70;8.93;;;;;;;;;;5113401;28;20046;-73
2022/02/02 06:17:53;;;;;;;19.95;9.07;;;4.40;88.60;;;;;;5112955;28;20055;-73
2022/02/02 06:21:09;;;;;;;24.85;9.10;;;4.20;89.00;;;;;;5101203;28;20054;-74
2022/02/02 06:24:19;;;;;;;21.00;9.02;;;4.00;89.00;;;;;;5112921;28;20038;-74
2022/02/02 06:27:26;;;;;;;14.43;7.95;;;4.00;90.30;;;;;;5112729;28;20046;-74
2022/02/02 06:30:46;;;;;;;19.58;9.52;;;4.00;89.90;;;;;;5118040;28;20059;-74
2022/02/02 06:33:58;;;;;;;24.20;11.18;;;3.90;90.30;;;;;;5112042;28;20054;-74
2022/02/02 06:37:14;;;;;;;22.80;11.10;;;4.00;90.20;;;;;;5112715;28;20664;-74
2022/02/02 06:40:19;;;;;;;23.88;9.77;;;4.10;90.20;;;;;;5112782;28;20231;-69
2022/02/02 06:43:24;;;;;;;23.00;10.20;;;4.30;90.40;;;;;;5100084;28;20043;-69
2022/02/02 06:46:31;;;;;;;28.55;14.77;;;4.50;89.10;;;;;;5112395;28;20042;-68
2022/02/02 06:49:37;;;;;;;31.88;15.25;;;4.60;88.30;;;;;;5112582;28;20066;-69
2022/02/02 06:53:12;;;;;;;22.83;12.02;;;4.70;87.70;;;;;;5099550;28;20113;-69
2022/02/02 06:56:33;;;;;;;22.00;10.73;;;4.80;87.10;;;;;;5112302;28;20035;-69
2022/02/02 07:03:10;;;;;;;23.88;11.82;;;5.00;85.70;;;;;;5111927;28;20047;-69
2022/02/02 07:06:36;;;;;;;25.13;12.57;;;5.10;85.30;;;;;;5111373;28;20047;-69
2022/02/02 07:10:11;;;;;;;22.30;12.15;;;5.10;84.90;;;;;;5110629;28;20121;-69
2022/02/02 07:20:08;;;;;;;23.02;12.02;;;5.30;83.80;;;;;;5111249;28;20042;-68
2022/02/02 07:32:48;;;;;;;17.20;10.80;;;6.00;81.80;;;;;;5111089;28;20047;-67
2022/02/02 07:36:05;;;;;;;15.50;9.23;;;6.30;80.00;;;;;;5110911;28;20043;-67
2022/02/02 07:39:12;;;;;;;18.35;10.13;;;6.30;79.60;;;;;;5110634;28;20403;-67
2022/02/02 07:42:20;;;;;;;23.58;12.23;;;6.40;79.40;;;;;;5111104;28;20391;-67
2022/02/02 07:45:25;;;;;;;19.48;11.73;;;6.60;79.10;;;;;;5111252;28;20055;-67
2022/02/02 07:48:33;;;;;;;28.08;12.35;;;6.70;79.10;;;;;;5111060;28;20047;-70
2022/02/02 07:51:41;;;;;;;28.05;13.68;;;6.80;78.50;;;;;;5111257;28;20046;-70
2022/02/02 07:54:48;;;;;;;30.63;15.93;;;7.00;78.60;;;;;;5111533;28;20046;-70
2022/02/02 07:57:57;;;;;;;39.10;21.05;;;7.10;77.80;;;;;;5111423;28;20051;-70
2022/02/02 08:01:01;;;;;;;22.13;10.95;;;7.10;77.30;;;;;;5110611;28;20050;-70
2022/02/02 08:04:06;;;;;;;16.63;9.15;;;7.10;77.70;;;;;;5111607;28;20062;-69
2022/02/02 08:07:18;;;;;;;24.10;9.68;;;7.00;77.70;;;;;;5111218;28;20038;-69
2022/02/02 08:10:24;;;;;;;23.10;9.63;;;7.00;78.40;;;;;;5110881;28;20521;-69
2022/02/02 08:13:38;;;;;;;23.63;11.50;;;7.10;77.90;;;;;;5111258;28;20051;-69
2022/02/02 08:16:42;;;;;;;22.25;11.90;;;7.10;78.80;;;;;;5113951;28;20043;-69
2022/02/02 08:19:47;;;;;;;21.50;11.27;;;7.00;79.30;;;;;;5115111;28;20054;-70
2022/02/02 08:22:52;;;;;;;20.63;10.73;;;7.20;79.80;;;;;;5115317;28;20051;-71
2022/02/02 08:25:58;;;;;;;19.05;10.40;;;7.30;80.30;;;;;;5114626;28;20050;-71
2022/02/02 08:29:02;;;;;;;16.95;8.85;;;7.50;79.40;;;;;;5114845;28;20043;-71
2022/02/02 08:32:07;;;;;;;19.40;10.52;;;7.80;79.60;;;;;;5114841;28;20054;-72
2022/02/02 08:35:12;;;;;;;17.77;9.90;;;8.20;79.60;;;;;;5114720;28;20042;-73
2022/02/02 08:38:44;;;;;;;23.75;10.05;;;8.60;78.70;;;;;;5114831;28;20046;-70
2022/02/02 08:41:49;;;;;;;21.85;9.55;;;9.00;77.80;;;;;;5114827;28;20506;-68
2022/02/02 08:45:15;;;;;;;31.42;10.77;;;9.20;74.90;;;;;;5113403;28;20050;-70
2022/02/02 08:48:22;;;;;;;39.10;11.13;;;9.30;74.90;;;;;;5114149;28;20054;-70
2022/02/02 08:51:33;;;;;;;17.95;8.02;;;9.30;74.50;;;;;;5114151;28;20062;-70
2022/02/02 08:58:07;;;;;;;10.50;6.60;;;9.50;71.40;;;;;;5114288;28;20047;-68
2022/02/02 09:01:33;;;;;;;14.57;5.47;;;9.60;68.30;;;;;;5113993;28;20051;-69
2022/02/02 09:07:59;;;;;;;16.08;5.82;;;10.00;67.80;;;;;;5113712;28;20039;-69
2022/02/02 09:24:47;;;;;;;13.07;4.90;;;11.20;66.60;;;;;;5113548;28;20042;-68
2022/02/02 09:34:30;;;;;;;11.95;5.57;;;11.80;65.00;;;;;;5112595;28;20047;-68
2022/02/02 09:37:34;;;;;;;12.20;5.10;;;12.10;65.20;;;;;;5113237;28;20047;-70
2022/02/02 09:43:55;;;;;;;7.57;3.80;;;12.50;61.00;;;;;;5113089;28;20070;-67
2022/02/02 09:47:05;;;;;;;11.07;4.15;;;12.60;57.80;;;;;;5113213;28;20054;-69
2022/02/02 09:50:30;;;;;;;5.63;3.00;;;12.80;57.30;;;;;;5112822;28;20486;-70
2022/02/02 09:57:13;;;;;;;7.65;4.05;;;13.10;56.10;;;;;;5113017;28;20038;-72
2022/02/02 10:00:37;;;;;;;9.73;3.13;;;13.30;55.00;;;;;;5113350;28;20070;-69
2022/02/02 10:07:21;;;;;;;7.47;4.10;;;13.60;57.00;;;;;;5112768;28;20046;-70
2022/02/02 10:10:52;;;;;;;5.80;2.65;;;13.80;56.20;;;;;;5112956;28;20039;-70
2022/02/02 10:14:14;;;;;;;5.63;3.20;;;14.00;54.70;;;;;;5113101;28;20058;-70
2022/02/02 10:17:29;;;;;;;9.52;3.53;;;14.20;55.20;;;;;;5113015;28;20043;-72
2022/02/02 10:20:35;;;;;;;11.05;3.70;;;14.30;54.70;;;;;;5112599;28;20046;-69
2022/02/02 10:23:41;;;;;;;7.80;3.40;;;14.40;55.50;;;;;;5112297;28;20046;-69
2022/02/02 10:26:51;;;;;;;12.10;3.78;;;14.60;55.00;;;;;;5112385;28;20038;-70
2022/02/02 10:30:08;;;;;;;11.35;4.05;;;14.70;54.30;;;;;;5112568;28;20042;-70
2022/02/02 10:33:19;;;;;;;7.10;2.83;;;14.80;54.60;;;;;;5111799;28;20639;-73
2022/02/02 10:36:23;;;;;;;6.60;2.45;;;15.00;54.60;;;;;;5112856;28;20043;-73
2022/02/02 10:39:44;;;;;;;5.25;2.10;;;15.10;54.20;;;;;;5111916;28;20383;-73
2022/02/02 10:42:49;;;;;;;6.67;2.20;;;15.20;54.00;;;;;;5112607;28;20034;-71
2022/02/02 10:45:53;;;;;;;8.40;2.55;;;15.10;51.30;;;;;;5112606;28;20046;-75
2022/02/02 10:49:11;;;;;;;7.95;2.30;;;15.10;50.10;;;;;;5112322;28;20066;-72
2022/02/02 10:52:36;;;;;;;2.83;1.77;;;15.20;51.10;;;;;;5112168;28;20510;-72
2022/02/02 11:08:38;;;;;;;6.93;2.65;;;15.60;50.00;;;;;;5111918;28;20057;-70
2022/02/02 11:11:50;;;;;;;2.92;1.65;;;15.70;48.80;;;;;;5111871;28;20039;-70
2022/02/02 11:15:16;;;;;;;4.68;1.88;;;15.60;49.10;;;;;;5112092;28;20043;-72
2022/02/02 11:18:27;;;;;;;4.43;2.40;;;15.60;48.30;;;;;;5112061;28;20513;-72
2022/02/02 11:21:36;;;;;;;10.70;2.92;;;15.50;46.90;;;;;;5111726;28;20043;-72
2022/02/02 11:24:39;;;;;;;5.07;2.78;;;15.40;47.20;;;;;;5111937;28;20047;-73
2022/02/02 11:27:46;;;;;;;5.15;2.33;;;15.40;48.60;;;;;;5111602;28;20043;-72
2022/02/02 11:30:50;;;;;;;4.10;2.40;;;15.30;49.40;;;;;;5111826;28;20046;-72
2022/02/02 11:33:57;;;;;;;4.68;2.35;;;15.30;48.10;;;;;;5111497;28;20058;-73
2022/02/02 11:37:08;;;;;;;8.68;3.35;;;15.20;49.60;;;;;;5111412;28;20054;-73
2022/02/02 11:40:43;;;;;;;;;;;15.20;50.00;;;;;;5111957;28;20047;-72
2022/02/02 11:47:20;;;;;;;4.63;2.67;;;15.00;49.30;;;;;;5110405;28;20050;-73
2022/02/02 11:50:48;;;;;;;9.52;2.33;;;14.90;50.00;;;;;;5111057;28;20046;-71
2022/02/02 11:53:52;;;;;;;9.25;3.33;;;14.90;49.70;;;;;;5110846;28;20050;-70
2022/02/02 11:57:12;;;;;;;8.35;2.97;;;14.80;50.60;;;;;;5111320;28;20046;-71
2022/02/02 12:04:09;;;;;;;8.77;3.40;;;14.70;51.60;;;;;;5111307;28;20038;-70
2022/02/02 12:08:12;;;;;;;4.43;2.55;;;14.70;50.80;;;;;;5110987;28;20062;-72
2022/02/02 12:48:18;;;;;;;7.47;3.00;;;14.60;53.00;;;;;;5110627;28;20058;-72
2022/02/02 12:58:31;;;;;;;6.70;3.20;;;14.60;52.10;;;;;;5104505;28;20046;-71
2022/02/02 13:01:36;;;;;;;6.75;3.03;;;14.60;51.40;;;;;;5110801;28;20411;-71
2022/02/02 13:04:41;;;;;;;8.60;3.53;;;14.60;50.80;;;;;;5114342;28;20105;-73
2022/02/02 13:07:46;;;;;;;4.80;2.83;;;14.60;50.20;;;;;;5114380;28;20046;-70
2022/02/02 13:10:51;;;;;;;6.55;4.07;;;14.60;50.90;;;;;;5114140;28;20051;-70
2022/02/02 13:14:00;;;;;;;5.47;2.90;;;14.60;49.20;;;;;;5114241;28;20391;-72
2022/02/02 13:17:06;;;;;;;6.75;3.15;;;14.60;51.80;;;;;;5114297;28;20509;-73
2022/02/02 13:20:13;;;;;;;3.17;2.35;;;14.50;52.80;;;;;;5114180;28;20070;-71
2022/02/02 13:27:03;;;;;;;5.22;2.67;;;14.60;54.40;;;;;;5113814;28;20043;-71
2022/02/02 13:30:31;;;;;;;7.72;3.55;;;14.50;53.50;;;;;;5113923;28;20494;-73
2022/02/02 13:33:41;;;;;;;7.97;3.60;;;14.50;52.30;;;;;;5113686;28;20067;-72
2022/02/02 13:49:50;;;;;;;9.30;4.75;;;14.40;54.00;;;;;;5113666;28;20055;-70
2022/02/02 13:53:34;;;;;;;12.23;4.95;;;14.40;54.00;;;;;;5113442;28;20058;-71
2022/02/02 14:09:59;;;;;;;16.30;6.22;;;14.20;55.00;;;;;;5113187;28;20050;-71
2022/02/02 14:33:15;;;;;;;8.55;4.63;;;14.00;60.80;;;;;;5111675;28;20414;-70
2022/02/02 14:36:24;;;;;;;12.27;5.85;;;14.00;58.30;;;;;;5112548;28;20121;-72
2022/02/02 14:39:43;;;;;;;9.52;5.20;;;14.00;57.40;;;;;;5111802;28;20058;-71
2022/02/02 14:42:51;;;;;;;10.73;5.72;;;13.90;57.00;;;;;;5112428;28;20042;-71
2022/02/02 14:45:58;;;;;;;10.30;5.97;;;13.90;56.90;;;;;;5112305;28;20046;-72
2022/02/02 14:49:15;;;;;;;10.77;5.25;;;13.90;57.30;;;;;;5111928;28;20046;-73
2022/02/02 14:52:36;;;;;;;8.40;4.47;;;13.80;56.00;;;;;;5111560;28;20390;-72
2022/02/02 15:09:37;;;;;;;9.55;5.63;;;13.70;57.70;;;;;;5112289;28;20050;-71
2022/02/02 15:27:28;;;;;;;8.63;5.78;;;13.60;59.40;;;;;;5111335;28;19915;-72
2022/02/02 15:33:36;;;;;;;14.32;8.77;;;13.50;60.00;;;;;;5111595;28;20070;-74
2022/02/02 15:40:10;;;;;;;15.32;7.93;;;13.40;60.40;;;;;;5111340;28;20047;-72
2022/02/02 15:43:29;;;;;;;14.00;7.93;;;13.40;59.70;;;;;;5111527;28;20391;-71
2022/02/02 16:06:34;;;;;;;21.67;11.00;;;13.10;61.90;;;;;;5110901;28;20043;-72
2022/02/02 16:09:50;;;;;;;32.00;12.60;;;13.10;62.10;;;;;;5110318;28;20105;-72
2022/02/02 16:12:54;;;;;;;36.70;12.02;;;13.00;63.60;;;;;;5110829;28;20097;-74
2022/02/02 16:16:11;;;;;;;26.98;11.00;;;12.90;64.30;;;;;;5110765;28;20043;-72
2022/02/02 16:19:22;;;;;;;34.72;14.32;;;12.80;64.40;;;;;;5110726;28;20399;-72
2022/02/02 16:36:17;;;;;;;49.38;17.67;;;12.50;67.60;;;;;;5110870;28;20066;-72
2022/02/02 16:39:24;;;;;;;58.60;15.50;;;12.40;69.00;;;;;;5114756;28;20051;-72
2022/02/02 16:45:54;;;;;;;70.10;17.80;;;12.20;70.00;;;;;;5114045;28;20047;-70
2022/02/02 16:48:58;;;;;;;44.35;15.00;;;12.10;71.10;;;;;;5114084;28;20054;-70
2022/02/02 16:52:03;;;;;;;33.50;13.43;;;12.10;69.60;;;;;;5114483;28;20051;-80
2022/02/02 16:55:20;;;;;;;45.17;14.02;;;12.00;68.80;;;;;;5101401;28;20054;-70
2022/02/02 17:29:40;;;;;;;70.47;23.27;;;11.10;72.10;;;;;;5113917;28;20046;-72
2022/02/02 17:35:38;;;;;;;54.75;27.23;;;10.90;72.40;;;;;;5113564;28;20058;-73
2022/02/02 17:38:52;;;;;;;55.30;30.60;;;10.80;72.90;;;;;;5113504;28;20039;-69
2022/02/02 18:21:31;;;;;;;93.97;52.97;;;10.00;73.00;;;;;;5112709;28;20100;-80
2022/02/02 18:24:52;;;;;;;84.70;50.13;;;10.10;73.80;;;;;;5112618;28;20054;-80
2022/02/02 18:28:32;;;;;;;101.15;53.05;;;10.10;72.40;;;;;;5112963;28;20043;-79
2022/02/02 18:34:52;;;;;;;99.70;58.72;;;10.00;74.50;;;;;;5111067;28;20194;-79
2022/02/02 18:42:30;;;;;;;98.13;59.80;;;9.80;74.20;;;;;;5112171;28;20065;-82
2022/02/02 18:48:23;;;;;;;106.32;62.88;;;9.60;75.60;;;;;;5111983;28;20063;-80
2022/02/02 18:52:47;;;;;;;110.75;66.82;;;9.50;75.50;;;;;;5112444;28;20395;-80
2022/02/02 18:59:37;;;;;;;132.43;78.57;;;9.50;77.00;;;;;;5112384;28;20042;-80
2022/02/02 19:02:53;;;;;;;128.98;76.25;;;9.30;76.40;;;;;;5110873;28;20530;-79
2022/02/02 19:56:41;;;;;;;186.80;122.47;;;8.30;80.90;;;;;;5084213;28;20051;-80
2022/02/02 20:12:57;;;;;;;185.50;126.93;;;8.20;81.60;;;;;;5114560;28;20055;-80
2022/02/02 20:16:02;;;;;;;195.65;125.55;;;8.10;82.10;;;;;;5114446;28;20054;-80
2022/02/02 20:19:09;;;;;;;193.07;127.75;;;8.10;82.30;;;;;;5115223;28;20046;-80
2022/02/02 20:22:16;;;;;;;229.77;153.10;;;8.10;81.60;;;;;;5114317;28;20055;-80
2022/02/02 20:25:20;;;;;;;222.57;142.00;;;8.10;81.20;;;;;;5115025;28;20498;-79
2022/02/02 20:28:24;;;;;;;217.48;144.40;;;8.00;81.70;;;;;;5114136;28;20067;-80
2022/02/02 20:31:29;;;;;;;211.32;141.77;;;8.00;81.50;;;;;;5114399;28;20039;-79
2022/02/02 20:34:34;;;;;;;226.13;144.40;;;7.90;82.00;;;;;;5114647;28;20525;-80
2022/02/02 20:37:38;;;;;;;220.40;147.40;;;7.80;82.50;;;;;;5113866;28;20395;-80
2022/02/02 20:40:42;;;;;;;228.48;144.98;;;7.80;82.10;;;;;;5114825;28;20050;-79
2022/02/02 21:00:11;;;;;;;234.18;160.30;;;7.80;83.00;;;;;;5113731;28;20046;-79
2022/02/02 21:04:15;;;;;;;222.68;147.88;;;7.80;82.70;;;;;;5114630;28;20502;-80
2022/02/02 21:07:22;;;;;;;223.65;145.65;;;7.70;82.80;;;;;;5113196;28;20046;-82
2022/02/02 21:10:32;;;;;;;224.57;149.23;;;7.50;83.30;;;;;;5114293;28;20051;-82
2022/02/02 21:13:45;;;;;;;227.88;155.25;;;7.50;83.80;;;;;;5113203;28;20074;-81
2022/02/02 21:16:49;;;;;;;224.57;150.48;;;7.30;84.00;;;;;;5101373;28;20498;-82
2022/02/02 21:27:19;;;;;;;220.27;142.65;;;7.30;85.40;;;;;;5103278;28;20042;-80
2022/02/02 21:29:50;;;;;;;204.13;140.93;;;7.30;84.30;;;;;;5114607;28;20055;-80
2022/02/02 21:32:55;;;;;;;211.57;141.85;;;7.30;83.60;;;;;;5113985;28;20046;-80
2022/02/02 21:35:59;;;;;;;213.02;142.27;;;7.30;83.50;;;;;;5113063;28;20502;-80
2022/02/02 21:39:08;;;;;;;219.73;142.93;;;7.00;83.80;;;;;;5112830;28;20054;-81
2022/02/02 21:42:13;;;;;;;223.05;144.73;;;6.90;84.50;;;;;;5101180;28;20050;-80
2022/02/02 21:45:18;;;;;;;208.73;143.88;;;6.90;85.40;;;;;;5113622;28;20042;-80
2022/02/02 21:48:27;;;;;;;221.30;145.93;;;6.80;86.00;;;;;;5113321;28;20070;-80
2022/02/02 21:51:36;;;;;;;222.25;150.80;;;6.70;85.80;;;;;;5112422;28;20387;-82
2022/02/02 21:54:40;;;;;;;227.98;153.13;;;6.80;85.40;;;;;;5112676;28;20478;-82
2022/02/02 21:57:44;;;;;;;222.75;147.55;;;6.70;85.70;;;;;;5113036;28;20043;-82
2022/02/02 22:00:48;;;;;;;222.05;147.60;;;6.70;86.30;;;;;;5113461;28;20046;-82
2022/02/02 22:03:52;;;;;;;223.98;146.63;;;6.70;86.90;;;;;;5113463;28;20050;-82
2022/02/02 22:06:56;;;;;;;232.15;149.98;;;6.90;87.00;;;;;;5113224;28;20038;-82
2022/02/02 22:10:05;;;;;;;232.50;150.10;;;6.90;86.10;;;;;;5112699;28;20059;-82
2022/02/02 22:13:09;;;;;;;239.27;152.57;;;6.90;86.40;;;;;;5113214;28;20046;-82
2022/02/02 22:16:19;;;;;;;213.05;142.10;;;7.00;87.20;;;;;;5112194;28;20054;-82
2022/02/02 22:19:22;;;;;;;214.35;143.25;;;7.10;84.90;;;;;;5112797;28;20043;-82
2022/02/02 22:22:26;;;;;;;214.75;139.95;;;7.20;83.70;;;;;;5113147;28;20501;-82
2022/02/02 22:25:30;;;;;;;215.68;146.25;;;7.00;84.20;;;;;;5113106;28;20047;-82
2022/02/02 22:28:35;;;;;;;213.10;142.75;;;6.80;85.10;;;;;;5113027;28;20051;-82
2022/02/02 22:31:39;;;;;;;216.18;145.25;;;6.70;85.60;;;;;;5100573;28;20043;-82
2022/02/02 22:34:43;;;;;;;209.05;139.75;;;6.70;86.00;;;;;;5112628;28;20524;-82
2022/02/02 22:37:47;;;;;;;200.45;135.32;;;6.60;85.70;;;;;;5113072;28;20066;-82
2022/02/02 22:40:53;;;;;;;202.52;133.75;;;6.50;85.90;;;;;;5112094;28;20533;-82
2022/02/02 22:43:59;;;;;;;206.77;136.77;;;6.50;86.00;;;;;;5111918;28;20663;-81
2022/02/02 22:47:06;;;;;;;207.88;135.25;;;6.60;86.40;;;;;;5112593;28;20054;-82
2022/02/02 22:50:11;;;;;;;199.38;132.30;;;6.80;86.10;;;;;;5112928;28;20039;-82
2022/02/02 22:53:19;;;;;;;193.25;132.05;;;6.70;85.90;;;;;;5112541;28;20038;-82
2022/02/02 22:56:23;;;;;;;189.32;125.13;;;6.70;84.90;;;;;;5111515;28;20046;-82
2022/02/02 22:59:27;;;;;;;186.00;123.82;;;6.50;85.40;;;;;;5111318;28;20046;-82
2022/02/02 23:05:58;;;;;;;171.13;113.38;;;6.40;86.20;;;;;;5111186;28;20047;-82
2022/02/02 23:09:03;;;;;;;;;;;6.40;86.10;;;;;;5112392;28;20647;-82
2022/02/02 23:12:08;;;;;;;168.50;107.85;;;6.30;86.30;;;;;;5112419;28;20259;-82
2022/02/02 23:15:15;;;;;;;168.35;108.05;;;6.40;86.30;;;;;;5112007;28;20058;-82
2022/02/02 23:18:22;;;;;;;187.20;116.72;;;6.40;86.70;;;;;;5111982;28;20047;-82
2022/02/02 23:21:27;;;;;;;162.20;102.78;;;6.50;86.40;;;;;;5111856;28;20051;-82
2022/02/02 23:24:34;;;;;;;166.15;107.93;;;6.40;86.30;;;;;;5112012;28;20624;-82
2022/02/02 23:27:38;;;;;;;156.80;103.90;;;6.50;86.70;;;;;;5112200;28;20506;-82
2022/02/02 23:30:43;;;;;;;156.68;102.50;;;6.50;87.30;;;;;;5111491;28;20042;-82
2022/02/02 23:33:47;;;;;;;154.85;99.97;;;6.50;86.10;;;;;;5111308;28;20039;-82
2022/02/02 23:36:53;;;;;;;160.27;104.38;;;6.60;86.10;;;;;;5111011;28;20506;-82
2022/02/02 23:39:57;;;;;;;165.32;102.60;;;6.70;87.30;;;;;;5111812;28;20039;-82
2022/02/02 23:43:01;;;;;;;160.20;101.57;;;6.60;86.30;;;;;;5112117;28;20391;-82
2022/02/02 23:46:14;;;;;;;166.70;101.18;;;6.60;87.00;;;;;;5110221;28;20039;-82
2022/02/02 23:49:24;;;;;;;162.18;106.13;;;6.60;87.30;;;;;;5111488;28;20055;-82
2022/02/02 23:52:38;;;;;;;160.43;100.18;;;6.60;87.90;;;;;;5111737;28;20038;-82
2022/02/02 23:55:49;;;;;;;166.07;104.72;;;6.60;87.50;;;;;;5110478;28;20522;-82
2022/02/02 23:58:56;;;;;;;150.25;95.32;;;6.60;87.40;;;;;;5110841;28;20038;-82
